sensor_id;sensor_type;location;lat;lon;timestamp;temperature;humidity
27858;DHT22;16852;51.446;6.528;2022-10-16T00:00:39;15.20;99.90
27858;DHT22;16852;51.446;6.528;2022-10-16T00:02:40;15.20;99.90
27858;DHT22;16852;51.446;6.528;2022-10-16T00:04:41;15.10;99.90
27858;DHT22;16852;51.446;6.528;2022-10-16T00:06:41;15.10;99.90
27858;DHT22;16852;51.446;6.528;2022-10-16T00:08:42;15.10;99.90
27858;DHT22;16852;51.446;6.528;2022-10-16T00:10:43;15.10;99.90
27858;DHT22;16852;51.446;6.528;2022-10-16T00:12:44;15.10;99.90
27858;DHT22;16852;51.446;6.528;2022-10-16T00:14:44;15.10;99.90
27858;DHT22;16852;51.446;6.528;2022-10-16T00:16:45;15.10;99.90
27858;DHT22;16852;51.446;6.528;2022-10-16T00:18:46;15.00;99.90
27858;DHT22;16852;51.446;6.528;2022-10-16T00:20:46;15.00;99.90
27858;DHT22;16852;51.446;6.528;2022-10-16T00:22:47;15.00;99.90
27858;DHT22;16852;51.446;6.528;2022-10-16T00:24:47;15.00;99.90
27858;DHT22;16852;51.446;6.528;2022-10-16T00:26:49;15.00;99.90
27858;DHT22;16852;51.446;6.528;2022-10-16T00:28:51;14.90;99.90
27858;DHT22;16852;51.446;6.528;2022-10-16T00:30:52;14.90;99.90
27858;DHT22;16852;51.446;6.528;2022-10-16T00:32:53;15.00;99.90
27858;DHT22;16852;51.446;6.528;2022-10-16T00:34:53;15.00;99.90
27858;DHT22;16852;51.446;6.528;2022-10-16T00:36:57;14.90;99.90
27858;DHT22;16852;51.446;6.528;2022-10-16T00:38:58;14.90;99.90
27858;DHT22;16852;51.446;6.528;2022-10-16T00:41:01;14.90;99.90
27858;DHT22;16852;51.446;6.528;2022-10-16T00:43:01;14.90;99.90
27858;DHT22;16852;51.446;6.528;2022-10-16T00:45:02;14.90;99.90
27858;DHT22;16852;51.446;6.528;2022-10-16T00:47:03;14.90;99.90
27858;DHT22;16852;51.446;6.528;2022-10-16T00:51:09;14.90;99.90
27858;DHT22;16852;51.446;6.528;2022-10-16T00:53:10;14.90;99.90
27858;DHT22;16852;51.446;6.528;2022-10-16T00:55:11;14.90;99.90
27858;DHT22;16852;51.446;6.528;2022-10-16T00:57:13;14.90;99.90
27858;DHT22;16852;51.446;6.528;2022-10-16T00:59:20;14.90;99.90
27858;DHT22;16852;51.446;6.528;2022-10-16T01:01:22;14.90;99.90
27858;DHT22;16852;51.446;6.528;2022-10-16T01:03:31;14.90;99.90
27858;DHT22;16852;51.446;6.528;2022-10-16T01:05:49;14.90;99.90
27858;DHT22;16852;51.446;6.528;2022-10-16T01:08:05;14.90;99.90
27858;DHT22;16852;51.446;6.528;2022-10-16T01:12:46;14.90;99.90
27858;DHT22;16852;51.446;6.528;2022-10-16T01:14:54;14.90;99.90
27858;DHT22;16852;51.446;6.528;2022-10-16T01:17:17;14.90;99.90
27858;DHT22;16852;51.446;6.528;2022-10-16T01:19:26;14.90;99.90
27858;DHT22;16852;51.446;6.528;2022-10-16T01:21:42;14.90;99.90
27858;DHT22;16852;51.446;6.528;2022-10-16T01:28:15;14.90;99.90
27858;DHT22;16852;51.446;6.528;2022-10-16T01:30:30;14.90;99.90
27858;DHT22;16852;51.446;6.528;2022-10-16T01:32:49;14.90;99.90
27858;DHT22;16852;51.446;6.528;2022-10-16T01:34:59;15.00;99.90
27858;DHT22;16852;51.446;6.528;2022-10-16T01:37:07;14.90;99.90
27858;DHT22;16852;51.446;6.528;2022-10-16T01:39:10;14.90;99.90
27858;DHT22;16852;51.446;6.528;2022-10-16T01:41:20;14.90;99.90
27858;DHT22;16852;51.446;6.528;2022-10-16T01:43:28;14.90;99.90
27858;DHT22;16852;51.446;6.528;2022-10-16T01:45:32;15.00;99.90
27858;DHT22;16852;51.446;6.528;2022-10-16T01:47:35;14.90;99.90
27858;DHT22;16852;51.446;6.528;2022-10-16T01:49:39;14.90;99.90
27858;DHT22;16852;51.446;6.528;2022-10-16T01:51:40;14.90;99.90
27858;DHT22;16852;51.446;6.528;2022-10-16T01:53:47;14.90;99.90
27858;DHT22;16852;51.446;6.528;2022-10-16T01:55:49;14.90;99.90
27858;DHT22;16852;51.446;6.528;2022-10-16T01:57:51;14.90;99.90
27858;DHT22;16852;51.446;6.528;2022-10-16T01:59:54;14.90;99.90
27858;DHT22;16852;51.446;6.528;2022-10-16T02:01:59;14.80;99.90
27858;DHT22;16852;51.446;6.528;2022-10-16T02:04:07;14.80;99.90
27858;DHT22;16852;51.446;6.528;2022-10-16T02:06:09;14.80;99.90
27858;DHT22;16852;51.446;6.528;2022-10-16T02:08:09;14.70;99.90
27858;DHT22;16852;51.446;6.528;2022-10-16T02:10:10;14.70;99.90
27858;DHT22;16852;51.446;6.528;2022-10-16T02:12:22;14.70;99.90
27858;DHT22;16852;51.446;6.528;2022-10-16T02:14:24;14.70;99.90
27858;DHT22;16852;51.446;6.528;2022-10-16T02:16:39;14.70;99.90
27858;DHT22;16852;51.446;6.528;2022-10-16T02:18:41;14.70;99.90
27858;DHT22;16852;51.446;6.528;2022-10-16T02:20:55;14.70;99.90
27858;DHT22;16852;51.446;6.528;2022-10-16T02:22:58;14.70;99.90
27858;DHT22;16852;51.446;6.528;2022-10-16T02:25:06;14.70;99.90
27858;DHT22;16852;51.446;6.528;2022-10-16T02:27:19;14.60;99.90
27858;DHT22;16852;51.446;6.528;2022-10-16T02:29:25;14.60;99.90
27858;DHT22;16852;51.446;6.528;2022-10-16T02:31:27;14.60;99.90
27858;DHT22;16852;51.446;6.528;2022-10-16T02:33:29;14.60;99.90
27858;DHT22;16852;51.446;6.528;2022-10-16T02:35:31;14.60;99.90
27858;DHT22;16852;51.446;6.528;2022-10-16T02:37:32;14.60;99.90
27858;DHT22;16852;51.446;6.528;2022-10-16T02:39:34;14.60;99.90
27858;DHT22;16852;51.446;6.528;2022-10-16T02:41:35;14.60;99.90
27858;DHT22;16852;51.446;6.528;2022-10-16T02:43:36;14.60;99.90
27858;DHT22;16852;51.446;6.528;2022-10-16T02:45:36;14.60;99.90
27858;DHT22;16852;51.446;6.528;2022-10-16T02:47:37;14.60;99.90
27858;DHT22;16852;51.446;6.528;2022-10-16T02:49:38;14.60;99.90
27858;DHT22;16852;51.446;6.528;2022-10-16T02:51:38;14.60;99.90
27858;DHT22;16852;51.446;6.528;2022-10-16T02:53:39;14.60;99.90
27858;DHT22;16852;51.446;6.528;2022-10-16T02:55:39;14.60;99.90
27858;DHT22;16852;51.446;6.528;2022-10-16T02:57:40;14.60;99.90
27858;DHT22;16852;51.446;6.528;2022-10-16T02:59:41;14.50;99.90
27858;DHT22;16852;51.446;6.528;2022-10-16T03:01:41;14.50;99.90
27858;DHT22;16852;51.446;6.528;2022-10-16T03:03:42;14.50;99.90
27858;DHT22;16852;51.446;6.528;2022-10-16T03:05:43;14.50;99.90
27858;DHT22;16852;51.446;6.528;2022-10-16T03:07:46;14.60;99.90
27858;DHT22;16852;51.446;6.528;2022-10-16T03:09:46;14.50;99.90
27858;DHT22;16852;51.446;6.528;2022-10-16T03:11:47;14.50;99.90
27858;DHT22;16852;51.446;6.528;2022-10-16T03:13:47;14.50;99.90
27858;DHT22;16852;51.446;6.528;2022-10-16T03:15:48;14.50;99.90
27858;DHT22;16852;51.446;6.528;2022-10-16T03:17:49;14.50;99.90
27858;DHT22;16852;51.446;6.528;2022-10-16T03:19:49;14.50;99.90
27858;DHT22;16852;51.446;6.528;2022-10-16T03:21:50;14.50;99.90
27858;DHT22;16852;51.446;6.528;2022-10-16T03:23:51;14.50;99.90
27858;DHT22;16852;51.446;6.528;2022-10-16T03:25:51;14.40;99.90
27858;DHT22;16852;51.446;6.528;2022-10-16T03:27:52;14.50;99.90
27858;DHT22;16852;51.446;6.528;2022-10-16T03:29:53;14.50;99.90
27858;DHT22;16852;51.446;6.528;2022-10-16T03:31:53;14.40;99.90
27858;DHT22;16852;51.446;6.528;2022-10-16T03:33:54;14.50;99.90
27858;DHT22;16852;51.446;6.528;2022-10-16T03:35:54;14.40;99.90
27858;DHT22;16852;51.446;6.528;2022-10-16T03:37:55;14.40;99.90
27858;DHT22;16852;51.446;6.528;2022-10-16T03:39:56;14.40;99.90
27858;DHT22;16852;51.446;6.528;2022-10-16T03:41:57;14.40;99.90
27858;DHT22;16852;51.446;6.528;2022-10-16T03:43:57;14.40;99.90
27858;DHT22;16852;51.446;6.528;2022-10-16T03:45:58;14.40;99.90
27858;DHT22;16852;51.446;6.528;2022-10-16T03:47:58;14.30;99.90
27858;DHT22;16852;51.446;6.528;2022-10-16T03:50:00;14.30;99.90
27858;DHT22;16852;51.446;6.528;2022-10-16T03:52:00;14.30;99.90
27858;DHT22;16852;51.446;6.528;2022-10-16T03:54:01;14.30;99.90
27858;DHT22;16852;51.446;6.528;2022-10-16T03:56:01;14.30;99.90
27858;DHT22;16852;51.446;6.528;2022-10-16T03:58:02;14.30;99.90
27858;DHT22;16852;51.446;6.528;2022-10-16T04:00:03;14.40;99.90
27858;DHT22;16852;51.446;6.528;2022-10-16T04:02:03;14.30;99.90
27858;DHT22;16852;51.446;6.528;2022-10-16T04:04:04;14.40;99.90
27858;DHT22;16852;51.446;6.528;2022-10-16T04:06:05;14.40;99.90
27858;DHT22;16852;51.446;6.528;2022-10-16T04:08:06;14.30;99.90
27858;DHT22;16852;51.446;6.528;2022-10-16T04:10:07;14.40;99.90
27858;DHT22;16852;51.446;6.528;2022-10-16T04:12:08;14.30;99.90
27858;DHT22;16852;51.446;6.528;2022-10-16T04:14:08;14.30;99.90
27858;DHT22;16852;51.446;6.528;2022-10-16T04:16:09;14.30;99.90
27858;DHT22;16852;51.446;6.528;2022-10-16T04:18:10;14.30;99.90
27858;DHT22;16852;51.446;6.528;2022-10-16T04:20:10;14.40;99.90
27858;DHT22;16852;51.446;6.528;2022-10-16T04:22:11;14.40;99.90
27858;DHT22;16852;51.446;6.528;2022-10-16T04:24:11;14.30;99.90
27858;DHT22;16852;51.446;6.528;2022-10-16T04:26:12;14.30;99.90
27858;DHT22;16852;51.446;6.528;2022-10-16T04:28:13;14.30;99.90
27858;DHT22;16852;51.446;6.528;2022-10-16T04:30:13;14.30;99.90
27858;DHT22;16852;51.446;6.528;2022-10-16T04:32:14;14.30;99.90
27858;DHT22;16852;51.446;6.528;2022-10-16T04:34:15;14.40;99.90
27858;DHT22;16852;51.446;6.528;2022-10-16T04:36:15;14.40;99.90
27858;DHT22;16852;51.446;6.528;2022-10-16T04:38:16;14.40;99.90
27858;DHT22;16852;51.446;6.528;2022-10-16T04:40:16;14.30;99.90
27858;DHT22;16852;51.446;6.528;2022-10-16T04:42:17;14.30;99.90
27858;DHT22;16852;51.446;6.528;2022-10-16T04:44:18;14.30;99.90
27858;DHT22;16852;51.446;6.528;2022-10-16T04:46:18;14.30;99.90
27858;DHT22;16852;51.446;6.528;2022-10-16T04:48:19;14.30;99.90
27858;DHT22;16852;51.446;6.528;2022-10-16T04:50:19;14.30;99.90
27858;DHT22;16852;51.446;6.528;2022-10-16T04:52:20;14.30;99.90
27858;DHT22;16852;51.446;6.528;2022-10-16T04:54:24;14.30;99.90
27858;DHT22;16852;51.446;6.528;2022-10-16T04:56:25;14.30;99.90
27858;DHT22;16852;51.446;6.528;2022-10-16T04:58:25;14.40;99.90
27858;DHT22;16852;51.446;6.528;2022-10-16T05:00:26;14.30;99.90
27858;DHT22;16852;51.446;6.528;2022-10-16T05:02:27;14.30;99.90
27858;DHT22;16852;51.446;6.528;2022-10-16T05:04:27;14.30;99.90
27858;DHT22;16852;51.446;6.528;2022-10-16T05:06:28;14.30;99.90
27858;DHT22;16852;51.446;6.528;2022-10-16T05:08:28;14.30;99.90
27858;DHT22;16852;51.446;6.528;2022-10-16T05:10:29;14.30;99.90
27858;DHT22;16852;51.446;6.528;2022-10-16T05:12:30;14.30;99.90
27858;DHT22;16852;51.446;6.528;2022-10-16T05:14:31;14.30;99.90
27858;DHT22;16852;51.446;6.528;2022-10-16T05:16:31;14.30;99.90
27858;DHT22;16852;51.446;6.528;2022-10-16T05:18:32;14.30;99.90
27858;DHT22;16852;51.446;6.528;2022-10-16T05:20:32;14.30;99.90
27858;DHT22;16852;51.446;6.528;2022-10-16T05:22:33;14.30;99.90
27858;DHT22;16852;51.446;6.528;2022-10-16T05:24:34;14.30;99.90
27858;DHT22;16852;51.446;6.528;2022-10-16T05:26:34;14.30;99.90
27858;DHT22;16852;51.446;6.528;2022-10-16T05:28:35;14.30;99.90
27858;DHT22;16852;51.446;6.528;2022-10-16T05:30:37;14.30;99.90
27858;DHT22;16852;51.446;6.528;2022-10-16T05:32:37;14.30;99.90
27858;DHT22;16852;51.446;6.528;2022-10-16T05:34:38;14.30;99.90
27858;DHT22;16852;51.446;6.528;2022-10-16T05:36:39;14.30;99.90
27858;DHT22;16852;51.446;6.528;2022-10-16T05:38:40;14.30;99.90
27858;DHT22;16852;51.446;6.528;2022-10-16T05:40:40;14.30;99.90
27858;DHT22;16852;51.446;6.528;2022-10-16T05:42:41;14.20;99.90
27858;DHT22;16852;51.446;6.528;2022-10-16T05:44:41;14.20;99.90
27858;DHT22;16852;51.446;6.528;2022-10-16T05:46:42;14.20;99.90
27858;DHT22;16852;51.446;6.528;2022-10-16T05:48:43;14.20;99.90
27858;DHT22;16852;51.446;6.528;2022-10-16T05:50:43;14.20;99.90
27858;DHT22;16852;51.446;6.528;2022-10-16T05:52:44;14.20;99.90
27858;DHT22;16852;51.446;6.528;2022-10-16T05:54:45;14.20;99.90
27858;DHT22;16852;51.446;6.528;2022-10-16T05:56:45;14.20;99.90
27858;DHT22;16852;51.446;6.528;2022-10-16T05:58:46;14.20;99.90
27858;DHT22;16852;51.446;6.528;2022-10-16T06:01:01;14.20;99.90
27858;DHT22;16852;51.446;6.528;2022-10-16T06:03:02;14.20;99.90
27858;DHT22;16852;51.446;6.528;2022-10-16T06:05:03;14.10;99.90
27858;DHT22;16852;51.446;6.528;2022-10-16T06:07:03;14.10;99.90
27858;DHT22;16852;51.446;6.528;2022-10-16T06:09:04;14.10;99.90
27858;DHT22;16852;51.446;6.528;2022-10-16T06:11:07;14.10;99.90
27858;DHT22;16852;51.446;6.528;2022-10-16T06:13:08;14.20;99.90
27858;DHT22;16852;51.446;6.528;2022-10-16T06:15:09;14.20;99.90
27858;DHT22;16852;51.446;6.528;2022-10-16T06:17:09;14.20;99.90
27858;DHT22;16852;51.446;6.528;2022-10-16T06:19:10;14.20;99.90
27858;DHT22;16852;51.446;6.528;2022-10-16T06:21:14;14.10;99.90
27858;DHT22;16852;51.446;6.528;2022-10-16T06:23:16;14.20;99.90
27858;DHT22;16852;51.446;6.528;2022-10-16T06:25:17;14.10;99.90
27858;DHT22;16852;51.446;6.528;2022-10-16T06:27:17;14.10;99.90
27858;DHT22;16852;51.446;6.528;2022-10-16T06:29:18;14.10;99.90
27858;DHT22;16852;51.446;6.528;2022-10-16T06:31:18;14.20;99.90
27858;DHT22;16852;51.446;6.528;2022-10-16T06:33:19;14.10;99.90
27858;DHT22;16852;51.446;6.528;2022-10-16T06:35:20;14.10;99.90
27858;DHT22;16852;51.446;6.528;2022-10-16T06:37:20;14.10;99.90
27858;DHT22;16852;51.446;6.528;2022-10-16T06:39:22;14.10;99.90
27858;DHT22;16852;51.446;6.528;2022-10-16T06:41:23;14.10;99.90
27858;DHT22;16852;51.446;6.528;2022-10-16T06:43:24;14.10;99.90
27858;DHT22;16852;51.446;6.528;2022-10-16T06:45:25;14.10;99.90
27858;DHT22;16852;51.446;6.528;2022-10-16T06:47:26;14.20;99.90
27858;DHT22;16852;51.446;6.528;2022-10-16T06:49:27;14.20;99.90
27858;DHT22;16852;51.446;6.528;2022-10-16T06:51:29;14.20;99.90
27858;DHT22;16852;51.446;6.528;2022-10-16T06:53:32;14.20;99.90
27858;DHT22;16852;51.446;6.528;2022-10-16T06:55:32;14.10;99.90
27858;DHT22;16852;51.446;6.528;2022-10-16T06:57:33;14.20;99.90
27858;DHT22;16852;51.446;6.528;2022-10-16T06:59:33;14.10;99.90
27858;DHT22;16852;51.446;6.528;2022-10-16T07:01:34;14.10;99.90
27858;DHT22;16852;51.446;6.528;2022-10-16T07:03:39;14.20;99.90
27858;DHT22;16852;51.446;6.528;2022-10-16T07:05:41;14.20;99.90
27858;DHT22;16852;51.446;6.528;2022-10-16T07:07:42;14.20;99.90
27858;DHT22;16852;51.446;6.528;2022-10-16T07:09:42;14.10;99.90
27858;DHT22;16852;51.446;6.528;2022-10-16T07:11:43;14.10;99.90
27858;DHT22;16852;51.446;6.528;2022-10-16T07:13:45;14.20;99.90
27858;DHT22;16852;51.446;6.528;2022-10-16T07:15:46;14.20;99.90
27858;DHT22;16852;51.446;6.528;2022-10-16T07:17:46;14.20;99.90
27858;DHT22;16852;51.446;6.528;2022-10-16T07:19:47;14.20;99.90
27858;DHT22;16852;51.446;6.528;2022-10-16T07:21:47;14.20;99.90
27858;DHT22;16852;51.446;6.528;2022-10-16T07:23:52;14.20;99.90
27858;DHT22;16852;51.446;6.528;2022-10-16T07:25:53;14.30;99.90
27858;DHT22;16852;51.446;6.528;2022-10-16T07:27:54;14.30;99.90
27858;DHT22;16852;51.446;6.528;2022-10-16T07:29:56;14.40;99.90
27858;DHT22;16852;51.446;6.528;2022-10-16T07:31:56;14.40;99.90
27858;DHT22;16852;51.446;6.528;2022-10-16T07:33:59;14.50;99.90
27858;DHT22;16852;51.446;6.528;2022-10-16T07:36:00;14.60;99.90
27858;DHT22;16852;51.446;6.528;2022-10-16T07:38:00;14.80;99.90
27858;DHT22;16852;51.446;6.528;2022-10-16T07:40:01;15.00;99.90
27858;DHT22;16852;51.446;6.528;2022-10-16T07:42:01;15.20;99.90
27858;DHT22;16852;51.446;6.528;2022-10-16T07:44:03;15.40;99.90
27858;DHT22;16852;51.446;6.528;2022-10-16T07:46:04;15.70;99.90
27858;DHT22;16852;51.446;6.528;2022-10-16T07:48:04;15.90;99.90
27858;DHT22;16852;51.446;6.528;2022-10-16T07:50:05;16.30;99.90
27858;DHT22;16852;51.446;6.528;2022-10-16T07:52:06;16.70;99.90
27858;DHT22;16852;51.446;6.528;2022-10-16T07:54:08;17.00;99.90
27858;DHT22;16852;51.446;6.528;2022-10-16T07:56:09;17.30;99.90
27858;DHT22;16852;51.446;6.528;2022-10-16T07:58:10;17.60;99.90
27858;DHT22;16852;51.446;6.528;2022-10-16T08:00:11;17.90;99.90
27858;DHT22;16852;51.446;6.528;2022-10-16T08:02:14;18.10;99.90
27858;DHT22;16852;51.446;6.528;2022-10-16T08:04:14;18.30;99.90
27858;DHT22;16852;51.446;6.528;2022-10-16T08:06:16;18.50;99.90
27858;DHT22;16852;51.446;6.528;2022-10-16T08:08:17;18.80;99.90
27858;DHT22;16852;51.446;6.528;2022-10-16T08:10:20;19.10;99.90
27858;DHT22;16852;51.446;6.528;2022-10-16T08:12:21;19.30;99.90
27858;DHT22;16852;51.446;6.528;2022-10-16T08:14:22;19.50;99.90
27858;DHT22;16852;51.446;6.528;2022-10-16T08:16:22;19.60;99.90
27858;DHT22;16852;51.446;6.528;2022-10-16T08:18:23;19.90;99.90
27858;DHT22;16852;51.446;6.528;2022-10-16T08:20:24;20.10;99.90
27858;DHT22;16852;51.446;6.528;2022-10-16T08:22:25;20.20;99.90
27858;DHT22;16852;51.446;6.528;2022-10-16T08:24:25;20.30;99.90
27858;DHT22;16852;51.446;6.528;2022-10-16T08:26:27;20.30;99.90
27858;DHT22;16852;51.446;6.528;2022-10-16T08:28:27;20.60;99.90
27858;DHT22;16852;51.446;6.528;2022-10-16T08:30:28;20.70;99.90
27858;DHT22;16852;51.446;6.528;2022-10-16T08:32:29;20.60;99.90
27858;DHT22;16852;51.446;6.528;2022-10-16T08:34:29;20.70;99.90
27858;DHT22;16852;51.446;6.528;2022-10-16T08:36:30;20.70;99.90
27858;DHT22;16852;51.446;6.528;2022-10-16T08:38:30;20.60;99.90
27858;DHT22;16852;51.446;6.528;2022-10-16T08:40:32;20.70;99.90
27858;DHT22;16852;51.446;6.528;2022-10-16T08:47:20;20.30;99.90
27858;DHT22;16852;51.446;6.528;2022-10-16T08:49:22;20.20;99.90
27858;DHT22;16852;51.446;6.528;2022-10-16T08:51:32;20.20;99.90
27858;DHT22;16852;51.446;6.528;2022-10-16T08:53:51;20.20;99.90
27858;DHT22;16852;51.446;6.528;2022-10-16T08:55:53;20.00;99.90
27858;DHT22;16852;51.446;6.528;2022-10-16T08:57:54;20.00;99.90
27858;DHT22;16852;51.446;6.528;2022-10-16T09:00:05;19.90;99.90
27858;DHT22;16852;51.446;6.528;2022-10-16T09:02:32;19.90;99.90
27858;DHT22;16852;51.446;6.528;2022-10-16T09:07:18;19.80;99.90
27858;DHT22;16852;51.446;6.528;2022-10-16T09:12:05;19.90;99.90
27858;DHT22;16852;51.446;6.528;2022-10-16T09:14:33;19.90;99.90
27858;DHT22;16852;51.446;6.528;2022-10-16T09:16:46;19.80;99.90
27858;DHT22;16852;51.446;6.528;2022-10-16T09:21:18;19.80;99.90
27858;DHT22;16852;51.446;6.528;2022-10-16T09:23:29;19.90;99.90
27858;DHT22;16852;51.446;6.528;2022-10-16T09:25:31;19.80;99.90
27858;DHT22;16852;51.446;6.528;2022-10-16T09:27:32;19.90;99.90
27858;DHT22;16852;51.446;6.528;2022-10-16T09:29:33;19.90;99.90
27858;DHT22;16852;51.446;6.528;2022-10-16T09:31:36;19.80;99.90
27858;DHT22;16852;51.446;6.528;2022-10-16T09:33:38;19.90;99.90
27858;DHT22;16852;51.446;6.528;2022-10-16T09:35:45;19.90;99.90
27858;DHT22;16852;51.446;6.528;2022-10-16T09:37:50;19.90;99.90
27858;DHT22;16852;51.446;6.528;2022-10-16T09:39:52;19.70;99.90
27858;DHT22;16852;51.446;6.528;2022-10-16T09:41:53;19.70;99.90
27858;DHT22;16852;51.446;6.528;2022-10-16T09:44:00;19.70;99.90
27858;DHT22;16852;51.446;6.528;2022-10-16T09:46:05;19.70;99.90
27858;DHT22;16852;51.446;6.528;2022-10-16T09:48:13;19.80;99.90
27858;DHT22;16852;51.446;6.528;2022-10-16T09:50:24;19.80;99.90
27858;DHT22;16852;51.446;6.528;2022-10-16T09:52:26;19.80;99.90
27858;DHT22;16852;51.446;6.528;2022-10-16T09:54:27;19.80;99.90
27858;DHT22;16852;51.446;6.528;2022-10-16T09:56:33;19.80;99.90
27858;DHT22;16852;51.446;6.528;2022-10-16T09:58:34;19.80;99.90
27858;DHT22;16852;51.446;6.528;2022-10-16T10:00:34;19.80;99.90
27858;DHT22;16852;51.446;6.528;2022-10-16T10:02:36;19.80;99.90
27858;DHT22;16852;51.446;6.528;2022-10-16T10:04:58;19.80;99.90
27858;DHT22;16852;51.446;6.528;2022-10-16T10:06:59;19.90;99.90
27858;DHT22;16852;51.446;6.528;2022-10-16T10:09:16;19.90;99.90
27858;DHT22;16852;51.446;6.528;2022-10-16T10:11:17;19.90;99.90
27858;DHT22;16852;51.446;6.528;2022-10-16T10:13:23;20.00;99.90
27858;DHT22;16852;51.446;6.528;2022-10-16T10:15:25;20.00;99.90
27858;DHT22;16852;51.446;6.528;2022-10-16T10:17:28;20.00;99.90
27858;DHT22;16852;51.446;6.528;2022-10-16T10:19:29;20.00;99.90
27858;DHT22;16852;51.446;6.528;2022-10-16T10:21:32;20.10;99.90
27858;DHT22;16852;51.446;6.528;2022-10-16T10:23:33;20.20;99.90
27858;DHT22;16852;51.446;6.528;2022-10-16T10:25:54;20.20;99.90
27858;DHT22;16852;51.446;6.528;2022-10-16T10:31:06;20.20;99.90
27858;DHT22;16852;51.446;6.528;2022-10-16T10:33:47;20.30;99.90
27858;DHT22;16852;51.446;6.528;2022-10-16T10:40:51;20.30;99.90
27858;DHT22;16852;51.446;6.528;2022-10-16T10:45:35;20.30;99.90
27858;DHT22;16852;51.446;6.528;2022-10-16T10:54:34;20.10;99.90
27858;DHT22;16852;51.446;6.528;2022-10-16T10:56:44;20.20;99.90
27858;DHT22;16852;51.446;6.528;2022-10-16T10:59:02;20.20;99.90
27858;DHT22;16852;51.446;6.528;2022-10-16T11:01:13;20.20;99.90
27858;DHT22;16852;51.446;6.528;2022-10-16T11:05:50;20.20;99.90
27858;DHT22;16852;51.446;6.528;2022-10-16T11:12:49;20.20;99.90
27858;DHT22;16852;51.446;6.528;2022-10-16T11:15:07;20.20;99.90
27858;DHT22;16852;51.446;6.528;2022-10-16T11:17:21;20.20;99.90
27858;DHT22;16852;51.446;6.528;2022-10-16T11:19:28;20.20;99.90
27858;DHT22;16852;51.446;6.528;2022-10-16T11:21:43;20.20;99.90
27858;DHT22;16852;51.446;6.528;2022-10-16T11:23:53;20.20;99.90
27858;DHT22;16852;51.446;6.528;2022-10-16T11:26:00;20.10;99.90
27858;DHT22;16852;51.446;6.528;2022-10-16T11:28:11;20.20;99.90
27858;DHT22;16852;51.446;6.528;2022-10-16T11:30:19;20.10;99.90
27858;DHT22;16852;51.446;6.528;2022-10-16T11:32:45;20.10;99.90
27858;DHT22;16852;51.446;6.528;2022-10-16T11:34:53;20.20;99.90
27858;DHT22;16852;51.446;6.528;2022-10-16T11:37:14;20.20;99.90
27858;DHT22;16852;51.446;6.528;2022-10-16T11:39:29;20.30;99.90
27858;DHT22;16852;51.446;6.528;2022-10-16T11:41:42;20.30;99.90
27858;DHT22;16852;51.446;6.528;2022-10-16T11:45:58;20.30;99.90
27858;DHT22;16852;51.446;6.528;2022-10-16T11:48:27;20.30;99.90
27858;DHT22;16852;51.446;6.528;2022-10-16T11:55:02;20.30;99.90
27858;DHT22;16852;51.446;6.528;2022-10-16T11:57:14;20.40;99.90
27858;DHT22;16852;51.446;6.528;2022-10-16T11:59:40;20.40;99.90
27858;DHT22;16852;51.446;6.528;2022-10-16T12:02:11;20.40;99.90
27858;DHT22;16852;51.446;6.528;2022-10-16T12:04:28;20.40;99.90
27858;DHT22;16852;51.446;6.528;2022-10-16T12:06:44;20.40;99.90
27858;DHT22;16852;51.446;6.528;2022-10-16T12:08:47;20.40;99.90
27858;DHT22;16852;51.446;6.528;2022-10-16T12:10:48;20.40;99.90
27858;DHT22;16852;51.446;6.528;2022-10-16T12:12:49;20.40;99.90
27858;DHT22;16852;51.446;6.528;2022-10-16T12:15:00;20.40;99.90
27858;DHT22;16852;51.446;6.528;2022-10-16T12:17:34;20.40;99.90
27858;DHT22;16852;51.446;6.528;2022-10-16T12:19:35;20.40;99.90
27858;DHT22;16852;51.446;6.528;2022-10-16T12:21:36;20.40;99.90
27858;DHT22;16852;51.446;6.528;2022-10-16T12:23:46;20.40;99.90
27858;DHT22;16852;51.446;6.528;2022-10-16T12:25:57;20.40;99.90
27858;DHT22;16852;51.446;6.528;2022-10-16T12:28:15;20.40;99.90
27858;DHT22;16852;51.446;6.528;2022-10-16T12:30:22;20.30;99.90
27858;DHT22;16852;51.446;6.528;2022-10-16T12:32:38;20.30;99.90
27858;DHT22;16852;51.446;6.528;2022-10-16T12:34:42;20.30;99.90
27858;DHT22;16852;51.446;6.528;2022-10-16T12:36:43;20.30;99.90
27858;DHT22;16852;51.446;6.528;2022-10-16T12:38:51;20.20;99.90
27858;DHT22;16852;51.446;6.528;2022-10-16T12:41:00;20.20;99.90
27858;DHT22;16852;51.446;6.528;2022-10-16T12:43:25;20.20;99.90
27858;DHT22;16852;51.446;6.528;2022-10-16T12:45:31;20.20;99.90
27858;DHT22;16852;51.446;6.528;2022-10-16T12:49:37;20.20;99.90
27858;DHT22;16852;51.446;6.528;2022-10-16T12:51:39;20.20;99.90
27858;DHT22;16852;51.446;6.528;2022-10-16T12:53:40;20.20;99.90
27858;DHT22;16852;51.446;6.528;2022-10-16T13:00:57;20.20;99.90
27858;DHT22;16852;51.446;6.528;2022-10-16T13:05:52;20.20;99.90
27858;DHT22;16852;51.446;6.528;2022-10-16T13:08:15;20.20;99.90
27858;DHT22;16852;51.446;6.528;2022-10-16T13:10:41;20.20;99.90
27858;DHT22;16852;51.446;6.528;2022-10-16T13:13:14;20.20;99.90
27858;DHT22;16852;51.446;6.528;2022-10-16T13:21:03;20.20;99.90
27858;DHT22;16852;51.446;6.528;2022-10-16T13:23:15;20.20;99.90
27858;DHT22;16852;51.446;6.528;2022-10-16T13:25:28;20.20;99.90
27858;DHT22;16852;51.446;6.528;2022-10-16T13:32:16;20.10;99.90
27858;DHT22;16852;51.446;6.528;2022-10-16T13:34:19;20.10;99.90
27858;DHT22;16852;51.446;6.528;2022-10-16T13:36:26;20.10;99.90
27858;DHT22;16852;51.446;6.528;2022-10-16T13:38:31;20.00;99.90
27858;DHT22;16852;51.446;6.528;2022-10-16T13:40:32;20.10;99.90
27858;DHT22;16852;51.446;6.528;2022-10-16T13:42:34;20.10;99.90
27858;DHT22;16852;51.446;6.528;2022-10-16T13:44:50;20.10;99.90
27858;DHT22;16852;51.446;6.528;2022-10-16T13:47:00;20.10;99.90
27858;DHT22;16852;51.446;6.528;2022-10-16T13:49:12;20.10;99.90
27858;DHT22;16852;51.446;6.528;2022-10-16T13:51:16;20.10;99.90
27858;DHT22;16852;51.446;6.528;2022-10-16T13:53:16;20.10;99.90
27858;DHT22;16852;51.446;6.528;2022-10-16T13:55:18;20.10;99.90
27858;DHT22;16852;51.446;6.528;2022-10-16T13:57:22;20.10;99.90
27858;DHT22;16852;51.446;6.528;2022-10-16T13:59:26;20.20;99.90
27858;DHT22;16852;51.446;6.528;2022-10-16T14:01:29;20.20;99.90
27858;DHT22;16852;51.446;6.528;2022-10-16T14:03:32;20.10;99.90
27858;DHT22;16852;51.446;6.528;2022-10-16T14:05:34;20.10;99.90
27858;DHT22;16852;51.446;6.528;2022-10-16T14:07:35;20.10;99.90
27858;DHT22;16852;51.446;6.528;2022-10-16T14:09:37;20.00;99.90
27858;DHT22;16852;51.446;6.528;2022-10-16T14:11:47;20.00;99.90
27858;DHT22;16852;51.446;6.528;2022-10-16T14:13:49;20.10;99.90
27858;DHT22;16852;51.446;6.528;2022-10-16T14:15:51;20.00;99.90
27858;DHT22;16852;51.446;6.528;2022-10-16T14:17:53;20.00;99.90